Time;durP1;ratioP1;P1;durP2;ratioP2;P2;SDS_P1;SDS_P2;PMS_P1;PMS_P2;Temp;Humidity;BMP_temperature;BMP_pressure;BME280_temperature;BME280_humidity;BME280_pressure;Samples;Min_cycle;Max_cycle;Signal;HPM_P1;HPM_P2
2021/07/06 00:01:20;;;;;;;15.80;14.60;;;15.00;81.00;;;;;;4995638;29;20487;-69
2021/07/06 00:03:53;;;;;;;15.68;14.50;;;15.00;81.10;;;;;;4992511;29;20467;-70
2021/07/06 00:06:25;;;;;;;15.95;14.75;;;15.00;81.20;;;;;;4996036;29;20050;-69
2021/07/06 00:08:57;;;;;;;15.57;14.38;;;15.00;81.30;;;;;;4994579;29;20599;-69
2021/07/06 00:11:30;;;;;;;15.60;14.40;;;15.00;81.40;;;;;;4992822;29;20118;-69
2021/07/06 00:14:02;;;;;;;15.50;14.30;;;14.90;81.60;;;;;;4994538;29;20045;-69
2021/07/06 00:16:34;;;;;;;15.57;14.27;;;14.90;81.70;;;;;;4991062;29;20103;-69
2021/07/06 00:19:06;;;;;;;15.63;14.52;;;14.90;81.70;;;;;;4996545;29;20486;-71
2021/07/06 00:21:38;;;;;;;16.00;14.70;;;14.90;81.70;;;;;;4995007;29;20103;-69
2021/07/06 00:24:10;;;;;;;16.17;14.90;;;15.00;81.10;;;;;;4994219;29;20550;-69
2021/07/06 00:26:42;;;;;;;16.33;14.80;;;14.90;81.60;;;;;;4993277;29;20074;-69
2021/07/06 00:29:14;;;;;;;15.70;14.40;;;14.90;81.30;;;;;;4995530;29;20137;-69
2021/07/06 00:31:46;;;;;;;15.23;14.13;;;14.90;81.30;;;;;;4998474;29;21016;-69
2021/07/06 00:34:18;;;;;;;15.85;14.68;;;14.90;81.00;;;;;;4995235;29;20511;-70
2021/07/06 00:36:50;;;;;;;15.65;14.48;;;14.80;81.60;;;;;;4991582;29;20097;-69
2021/07/06 00:39:22;;;;;;;16.15;14.73;;;14.80;82.40;;;;;;4994891;29;20186;-69
2021/07/06 00:41:54;;;;;;;15.63;14.43;;;14.70;82.40;;;;;;4993433;29;20062;-69
2021/07/06 00:44:26;;;;;;;15.50;14.40;;;14.70;82.70;;;;;;4995449;29;20073;-69
2021/07/06 00:46:58;;;;;;;15.60;14.50;;;14.80;82.50;;;;;;4991073;29;20145;-69
2021/07/06 00:49:30;;;;;;;15.65;14.38;;;14.70;82.30;;;;;;4992523;29;20047;-69
2021/07/06 00:52:04;;;;;;;15.65;14.52;;;14.70;82.10;;;;;;4994968;29;20081;-69
2021/07/06 00:54:36;;;;;;;15.43;14.27;;;14.70;82.20;;;;;;4993139;29;20542;-69
2021/07/06 00:57:08;;;;;;;15.40;14.25;;;14.80;82.90;;;;;;4993732;29;20130;-69
2021/07/06 00:59:40;;;;;;;15.38;14.18;;;14.80;81.90;;;;;;4992377;29;20496;-69
2021/07/06 01:02:12;;;;;;;15.57;14.38;;;14.80;82.40;;;;;;4995074;29;20050;-70
2021/07/06 01:04:44;;;;;;;15.77;14.57;;;14.80;81.80;;;;;;4989103;29;20435;-69
2021/07/06 01:07:15;;;;;;;15.40;14.30;;;14.80;81.60;;;;;;4992877;29;20050;-70
2021/07/06 01:09:48;;;;;;;15.85;14.55;;;14.80;81.60;;;;;;4994332;29;20102;-70
2021/07/06 01:12:20;;;;;;;15.70;14.50;;;14.80;81.10;;;;;;4992525;29;20137;-70
2021/07/06 01:14:52;;;;;;;15.90;14.60;;;14.80;81.20;;;;;;4991313;29;20165;-69
2021/07/06 01:17:29;;;;;;;15.45;14.27;;;14.70;81.20;;;;;;4993609;29;20043;-70
2021/07/06 01:20:07;;;;;;;15.77;14.55;;;14.70;81.60;;;;;;4993658;29;20618;-69
2021/07/06 01:22:39;;;;;;;15.63;14.32;;;14.60;82.00;;;;;;4991607;29;20130;-69
2021/07/06 01:25:12;;;;;;;15.68;14.48;;;14.60;82.10;;;;;;4991644;29;20058;-69
2021/07/06 01:27:45;;;;;;;15.73;14.50;;;14.50;81.90;;;;;;5008052;29;20105;-69
2021/07/06 01:30:18;;;;;;;15.95;14.75;;;14.50;83.10;;;;;;4989518;29;20048;-70
2021/07/06 01:32:50;;;;;;;15.48;14.25;;;14.50;82.50;;;;;;4993893;29;20114;-69
2021/07/06 01:35:22;;;;;;;15.90;14.80;;;14.50;82.50;;;;;;4991477;29;20059;-69
2021/07/06 01:37:56;;;;;;;16.55;15.00;;;14.50;82.40;;;;;;4991618;29;20074;-67
2021/07/06 01:40:30;;;;;;;16.13;14.82;;;14.50;82.60;;;;;;4992114;29;20082;-67
2021/07/06 01:43:02;;;;;;;16.08;14.88;;;14.50;82.20;;;;;;4993159;29;20056;-67
2021/07/06 01:45:35;;;;;;;17.27;15.30;;;14.50;83.10;;;;;;4991004;29;20050;-67
2021/07/06 01:48:07;;;;;;;15.73;14.52;;;14.50;82.80;;;;;;4996285;29;20529;-67
2021/07/06 01:50:41;;;;;;;15.95;14.75;;;14.40;82.90;;;;;;4990876;29;20142;-67
2021/07/06 01:53:16;;;;;;;15.90;14.70;;;14.40;82.90;;;;;;4989164;29;20086;-67
2021/07/06 01:55:51;;;;;;;16.00;14.73;;;14.40;83.20;;;;;;5006306;29;20785;-66
2021/07/06 01:58:26;;;;;;;15.50;14.30;;;14.40;83.30;;;;;;4991065;29;20164;-67
2021/07/06 02:01:00;;;;;;;15.90;14.70;;;14.30;83.30;;;;;;4990252;29;20086;-67
2021/07/06 02:03:32;;;;;;;16.27;15.02;;;14.40;83.30;;;;;;4990634;29;20047;-67
2021/07/06 02:06:04;;;;;;;16.00;14.80;;;14.40;83.50;;;;;;4991245;29;20562;-69
2021/07/06 02:08:36;;;;;;;15.93;14.73;;;14.40;83.50;;;;;;4992937;29;20077;-69
2021/07/06 02:11:08;;;;;;;15.98;14.70;;;14.40;83.60;;;;;;4990419;29;20042;-70
2021/07/06 02:13:40;;;;;;;16.33;15.02;;;14.30;84.00;;;;;;4992356;29;20138;-69
2021/07/06 02:16:12;;;;;;;16.60;15.25;;;14.30;84.20;;;;;;4990474;29;20042;-70
2021/07/06 02:18:44;;;;;;;16.17;14.88;;;14.30;83.90;;;;;;4991284;29;20054;-70
2021/07/06 02:21:16;;;;;;;16.05;14.85;;;14.30;83.50;;;;;;4989944;29;20070;-69
2021/07/06 02:23:49;;;;;;;16.48;15.07;;;14.30;84.00;;;;;;4989503;29;20152;-69
2021/07/06 02:26:21;;;;;;;16.10;14.90;;;14.30;83.70;;;;;;5006733;29;20129;-69
2021/07/06 02:28:53;;;;;;;15.60;14.45;;;14.30;83.60;;;;;;4997371;29;20050;-69
2021/07/06 02:31:24;;;;;;;16.08;14.77;;;14.30;83.70;;;;;;4989596;29;20653;-69
2021/07/06 02:33:56;;;;;;;15.68;14.57;;;14.30;83.50;;;;;;5002267;29;20109;-69
2021/07/06 02:36:28;;;;;;;15.70;14.60;;;14.30;83.50;;;;;;4989507;29;20103;-66
2021/07/06 02:39:04;;;;;;;15.38;14.27;;;14.30;83.90;;;;;;4992785;29;20439;-67
2021/07/06 02:41:36;;;;;;;15.80;14.70;;;14.20;83.80;;;;;;4987496;29;20154;-68
2021/07/06 02:44:08;;;;;;;16.00;14.80;;;14.20;83.70;;;;;;4997150;29;20141;-67
2021/07/06 02:46:40;;;;;;;15.60;14.40;;;14.20;83.70;;;;;;4994254;29;20046;-67
2021/07/06 02:49:12;;;;;;;16.23;14.93;;;14.20;83.50;;;;;;4995028;29;20125;-67
2021/07/06 02:51:44;;;;;;;15.80;14.68;;;14.30;83.70;;;;;;4994512;29;20054;-67
2021/07/06 02:54:15;;;;;;;15.38;14.07;;;14.30;83.60;;;;;;4993325;29;20153;-66
2021/07/06 02:56:47;;;;;;;15.60;14.40;;;14.30;83.50;;;;;;4990915;29;20129;-68
2021/07/06 02:59:19;;;;;;;15.70;14.50;;;14.40;83.20;;;;;;4995475;29;20078;-68
2021/07/06 03:01:52;;;;;;;16.13;14.70;;;14.40;83.00;;;;;;4992381;29;20133;-69
2021/07/06 03:04:24;;;;;;;15.80;14.60;;;14.40;82.70;;;;;;5007861;29;20074;-69
2021/07/06 03:06:56;;;;;;;15.50;14.23;;;14.40;83.00;;;;;;4992077;29;20050;-69
2021/07/06 03:09:28;;;;;;;15.07;13.98;;;14.30;82.80;;;;;;4993558;29;20471;-68
2021/07/06 03:12:00;;;;;;;15.25;14.15;;;14.30;83.00;;;;;;4993177;29;20043;-69
2021/07/06 03:14:32;;;;;;;15.25;14.15;;;14.30;83.10;;;;;;4994309;29;20132;-69
2021/07/06 03:17:04;;;;;;;15.32;14.15;;;14.30;83.00;;;;;;4994449;29;20473;-69
2021/07/06 03:19:36;;;;;;;15.15;13.93;;;14.30;83.30;;;;;;4992379;29;20043;-70
2021/07/06 03:22:08;;;;;;;15.20;14.10;;;14.30;83.10;;;;;;4992080;29;20086;-69
2021/07/06 03:24:39;;;;;;;15.63;14.32;;;14.30;83.00;;;;;;4993957;29;20125;-69
2021/07/06 03:27:11;;;;;;;15.57;14.27;;;14.30;82.80;;;;;;5009741;29;20098;-69
2021/07/06 03:29:44;;;;;;;15.32;13.95;;;14.30;82.90;;;;;;4993524;29;20361;-68
2021/07/06 03:32:16;;;;;;;15.55;14.35;;;14.30;82.30;;;;;;4994773;29;20038;-69
2021/07/06 03:34:48;;;;;;;15.30;14.10;;;14.20;81.90;;;;;;4995079;29;20137;-69
2021/07/06 03:37:20;;;;;;;15.15;14.05;;;14.20;82.40;;;;;;4992781;29;20062;-70
2021/07/06 03:39:52;;;;;;;15.00;13.90;;;14.10;82.40;;;;;;4994991;29;20053;-69
2021/07/06 03:42:24;;;;;;;15.25;14.10;;;14.10;82.00;;;;;;4995161;29;20074;-69
2021/07/06 03:44:56;;;;;;;15.00;13.80;;;14.10;82.10;;;;;;4995599;29;20129;-69
2021/07/06 03:47:28;;;;;;;15.15;14.05;;;14.10;83.00;;;;;;5010035;29;20051;-69
2021/07/06 03:50:00;;;;;;;14.80;13.70;;;14.10;83.20;;;;;;4995782;29;20710;-68
2021/07/06 03:52:33;;;;;;;14.80;13.70;;;14.10;83.40;;;;;;4993951;29;20047;-69
2021/07/06 03:55:06;;;;;;;15.68;14.10;;;14.10;83.40;;;;;;4992792;29;20110;-68
2021/07/06 03:57:38;;;;;;;15.10;14.00;;;14.10;83.20;;;;;;4996016;29;20073;-69
2021/07/06 04:00:16;;;;;;;14.95;13.85;;;14.00;83.10;;;;;;4989497;29;20143;-69
2021/07/06 04:02:48;;;;;;;15.45;14.07;;;14.00;82.50;;;;;;4995066;29;20146;-68
2021/07/06 04:05:21;;;;;;;14.40;13.20;;;13.90;82.50;;;;;;4993420;29;20402;-68
2021/07/06 04:07:53;;;;;;;15.07;13.77;;;13.80;82.30;;;;;;4992227;29;20503;-69
2021/07/06 04:10:25;;;;;;;14.85;13.73;;;13.80;82.80;;;;;;4990821;29;20572;-69
2021/07/06 04:12:57;;;;;;;15.30;13.82;;;13.80;82.30;;;;;;4992804;29;20057;-69
2021/07/06 04:15:29;;;;;;;14.65;13.52;;;13.80;82.10;;;;;;4991375;29;20050;-69
2021/07/06 04:18:01;;;;;;;14.52;13.52;;;13.80;82.40;;;;;;4995293;29;20039;-69
2021/07/06 04:20:33;;;;;;;14.90;13.60;;;13.80;82.40;;;;;;5007703;29;20111;-68
2021/07/06 04:23:07;;;;;;;14.23;13.13;;;13.80;82.10;;;;;;4999357;29;20042;-69
2021/07/06 04:25:39;;;;;;;14.30;13.27;;;13.90;82.00;;;;;;4992007;29;20832;-68
2021/07/06 04:28:11;;;;;;;14.50;13.30;;;13.90;82.50;;;;;;4993879;29;20129;-69
2021/07/06 04:30:43;;;;;;;14.43;13.23;;;13.90;82.80;;;;;;4993648;29;20102;-70
2021/07/06 04:33:15;;;;;;;13.77;12.77;;;13.90;82.40;;;;;;5008114;29;20057;-69
2021/07/06 04:35:47;;;;;;;13.73;12.73;;;13.90;83.10;;;;;;4994634;29;20598;-69
2021/07/06 04:38:19;;;;;;;14.07;13.07;;;13.90;83.20;;;;;;4992593;29;20074;-69
2021/07/06 04:40:51;;;;;;;14.60;13.50;;;14.00;83.40;;;;;;4990442;29;20046;-69
2021/07/06 04:43:23;;;;;;;14.25;13.05;;;14.10;82.60;;;;;;4992887;29;20133;-70
2021/07/06 04:45:55;;;;;;;14.30;13.15;;;14.20;82.40;;;;;;4989528;29;20060;-68
2021/07/06 04:48:27;;;;;;;14.30;13.18;;;14.30;82.20;;;;;;5006212;29;20061;-68
2021/07/06 04:51:05;;;;;;;14.65;13.55;;;14.50;81.80;;;;;;4997413;29;20062;-69
2021/07/06 04:53:39;;;;;;;15.20;13.90;;;14.60;81.30;;;;;;5004352;29;20049;-70
2021/07/06 04:56:11;;;;;;;14.70;13.60;;;14.70;81.10;;;;;;4992211;29;21031;-69
2021/07/06 04:58:43;;;;;;;14.40;13.20;;;14.80;80.50;;;;;;4991991;29;20785;-68
2021/07/06 05:01:15;;;;;;;14.45;13.35;;;14.90;80.80;;;;;;4996288;29;20230;-69
2021/07/06 05:03:49;;;;;;;14.60;13.40;;;15.00;80.90;;;;;;4992605;29;20081;-68
2021/07/06 05:06:21;;;;;;;14.30;13.20;;;15.10;81.20;;;;;;5006455;29;20185;-70
2021/07/06 05:08:53;;;;;;;14.85;13.75;;;15.20;81.30;;;;;;4991249;29;20524;-69
2021/07/06 05:11:25;;;;;;;15.25;14.05;;;15.30;82.10;;;;;;4994120;29;20087;-69
2021/07/06 05:13:57;;;;;;;15.30;14.10;;;15.40;81.50;;;;;;4992868;29;20248;-70
2021/07/06 05:16:30;;;;;;;15.07;13.98;;;15.50;81.70;;;;;;4991892;29;20050;-68
2021/07/06 05:19:03;;;;;;;15.15;13.95;;;15.60;81.70;;;;;;4990806;29;20057;-68
2021/07/06 05:21:34;;;;;;;15.10;14.00;;;15.70;82.00;;;;;;4990220;29;20142;-69
2021/07/06 05:24:12;;;;;;;14.95;13.82;;;15.90;81.30;;;;;;4991891;29;20054;-69
2021/07/06 05:26:44;;;;;;;15.20;14.10;;;15.90;81.30;;;;;;4990817;29;20519;-69
2021/07/06 05:29:16;;;;;;;15.00;13.80;;;16.10;81.40;;;;;;4989080;29;20141;-70
2021/07/06 05:31:48;;;;;;;15.30;14.20;;;16.20;81.10;;;;;;4991554;29;20081;-69
2021/07/06 05:34:20;;;;;;;14.50;13.40;;;16.30;81.00;;;;;;4992808;29;20050;-70
2021/07/06 05:36:53;;;;;;;15.18;13.95;;;16.40;80.60;;;;;;4990241;29;20074;-69
2021/07/06 05:39:26;;;;;;;15.35;14.10;;;16.50;80.40;;;;;;4993579;29;20083;-69
2021/07/06 05:41:58;;;;;;;15.40;14.20;;;16.60;79.40;;;;;;4991136;29;20149;-70
2021/07/06 05:44:31;;;;;;;14.90;13.80;;;16.60;79.20;;;;;;4991159;29;20069;-70
2021/07/06 05:47:05;;;;;;;15.20;13.90;;;16.80;80.50;;;;;;4992224;29;20065;-69
2021/07/06 05:49:37;;;;;;;14.90;13.80;;;16.90;80.80;;;;;;4990164;29;20427;-70
2021/07/06 05:52:09;;;;;;;15.57;14.40;;;17.00;80.00;;;;;;4991161;29;20127;-70
2021/07/06 05:54:41;;;;;;;15.15;14.05;;;17.20;79.40;;;;;;4993567;29;20125;-69
2021/07/06 05:57:17;;;;;;;14.52;13.48;;;17.30;79.90;;;;;;4989376;29;20058;-70
2021/07/06 05:59:48;;;;;;;15.02;13.82;;;17.40;80.30;;;;;;4994865;29;20065;-70
2021/07/06 06:02:20;;;;;;;15.13;13.88;;;17.60;80.30;;;;;;4988331;29;20073;-69
2021/07/06 06:04:52;;;;;;;15.52;14.15;;;17.80;80.60;;;;;;4985953;29;20070;-70
2021/07/06 06:07:24;;;;;;;15.23;14.02;;;17.90;80.20;;;;;;4989923;29;20854;-69
2021/07/06 06:09:56;;;;;;;15.27;14.07;;;18.00;79.10;;;;;;4990953;29;20077;-69
2021/07/06 06:12:29;;;;;;;15.85;14.65;;;18.10;80.70;;;;;;4989814;29;20115;-69
2021/07/06 06:15:01;;;;;;;15.48;14.27;;;18.30;79.40;;;;;;4990196;29;20819;-70
2021/07/06 06:17:33;;;;;;;15.63;14.43;;;18.40;78.80;;;;;;4990057;29;21934;-68
2021/07/06 06:20:06;;;;;;;15.90;14.60;;;18.50;80.20;;;;;;4991651;29;20064;-69
2021/07/06 06:22:38;;;;;;;15.68;14.57;;;18.60;78.40;;;;;;4991640;29;20962;-70
2021/07/06 06:25:13;;;;;;;16.35;14.98;;;18.80;78.80;;;;;;4991699;29;20507;-69
2021/07/06 06:27:45;;;;;;;16.30;14.90;;;18.80;79.50;;;;;;4992956;29;20110;-69
2021/07/06 06:30:18;;;;;;;16.33;15.13;;;19.00;80.10;;;;;;5003606;29;20117;-70
2021/07/06 06:32:51;;;;;;;16.08;14.88;;;19.20;79.50;;;;;;4991706;29;20073;-70
2021/07/06 06:35:23;;;;;;;16.17;14.88;;;19.30;78.80;;;;;;4974801;29;20764;-69
2021/07/06 06:37:55;;;;;;;15.73;14.52;;;19.40;77.60;;;;;;4991626;29;20141;-69
2021/07/06 06:40:27;;;;;;;16.55;15.18;;;19.50;76.70;;;;;;4991502;29;20070;-69
2021/07/06 06:42:59;;;;;;;16.75;15.35;;;19.60;77.40;;;;;;4993796;29;20213;-70
2021/07/06 06:45:31;;;;;;;16.67;15.02;;;19.70;76.90;;;;;;4990140;29;20050;-68
2021/07/06 06:48:03;;;;;;;16.23;14.93;;;19.80;76.90;;;;;;4989562;29;20070;-69
2021/07/06 06:50:35;;;;;;;15.95;14.75;;;19.90;76.50;;;;;;5005109;29;20085;-69
2021/07/06 06:53:07;;;;;;;16.20;14.90;;;20.10;76.20;;;;;;4988568;29;20046;-70
2021/07/06 06:55:39;;;;;;;16.25;15.05;;;20.10;75.80;;;;;;4989266;29;20137;-70
2021/07/06 06:58:11;;;;;;;15.98;14.77;;;20.20;74.30;;;;;;4990377;29;20057;-70
2021/07/06 07:00:42;;;;;;;16.58;15.27;;;20.40;73.30;;;;;;4989534;29;20054;-70
2021/07/06 07:03:15;;;;;;;16.60;15.30;;;20.50;72.80;;;;;;4991605;29;20102;-70
2021/07/06 07:05:47;;;;;;;16.13;14.82;;;20.60;72.10;;;;;;4990610;29;20119;-70
2021/07/06 07:08:20;;;;;;;16.25;14.98;;;20.70;72.30;;;;;;4991900;29;20086;-69
2021/07/06 07:10:52;;;;;;;15.95;14.75;;;20.80;74.40;;;;;;4990601;29;20045;-70
2021/07/06 07:13:26;;;;;;;16.33;15.13;;;21.00;74.10;;;;;;4988468;29;20139;-70
2021/07/06 07:15:58;;;;;;;16.48;15.18;;;21.10;72.30;;;;;;4987491;29;20064;-69
2021/07/06 07:18:30;;;;;;;16.75;15.38;;;21.20;71.50;;;;;;4993151;29;20052;-69
2021/07/06 07:21:02;;;;;;;16.75;15.55;;;21.30;72.70;;;;;;4987997;29;20123;-69
2021/07/06 07:23:34;;;;;;;16.88;15.68;;;21.40;71.00;;;;;;4990271;29;20123;-69
2021/07/06 07:26:06;;;;;;;16.80;15.57;;;21.40;69.20;;;;;;4990613;29;20050;-69
2021/07/06 07:28:38;;;;;;;16.60;15.40;;;21.60;69.30;;;;;;4991860;29;20498;-70
2021/07/06 07:31:10;;;;;;;16.70;15.50;;;21.70;69.50;;;;;;4993897;29;20073;-69
2021/07/06 07:33:42;;;;;;;16.83;15.52;;;21.80;70.90;;;;;;4994097;29;20114;-70
2021/07/06 07:36:14;;;;;;;16.75;15.43;;;21.90;69.60;;;;;;4994912;29;20133;-70
2021/07/06 07:38:46;;;;;;;16.85;15.50;;;22.10;68.90;;;;;;4993389;29;20133;-69
2021/07/06 07:41:18;;;;;;;16.80;15.50;;;22.20;67.70;;;;;;5008289;29;20136;-70
2021/07/06 07:43:53;;;;;;;17.00;15.70;;;22.30;66.00;;;;;;5008563;29;20510;-70
2021/07/06 07:46:26;;;;;;;16.45;15.15;;;22.40;64.80;;;;;;4996068;29;20051;-69
2021/07/06 07:48:58;;;;;;;17.40;15.88;;;22.50;65.50;;;;;;4989826;29;20046;-70
2021/07/06 07:51:30;;;;;;;16.90;15.60;;;22.60;65.30;;;;;;4992002;29;20153;-70
2021/07/06 07:54:02;;;;;;;16.40;15.10;;;22.70;64.20;;;;;;4992915;29;20045;-71
2021/07/06 07:56:34;;;;;;;17.10;15.90;;;22.70;65.20;;;;;;4992392;29;20116;-70
2021/07/06 07:59:08;;;;;;;16.92;15.73;;;22.70;63.10;;;;;;4994619;29;20042;-70
2021/07/06 08:01:39;;;;;;;16.95;15.75;;;22.80;66.10;;;;;;4993657;29;20105;-70
2021/07/06 08:04:12;;;;;;;17.58;16.27;;;23.00;63.20;;;;;;4990064;29;20090;-69
2021/07/06 08:06:43;;;;;;;17.42;16.15;;;23.10;64.30;;;;;;4990705;29;20110;-70
2021/07/06 08:09:15;;;;;;;17.50;16.10;;;23.20;63.10;;;;;;4993417;29;20145;-69
2021/07/06 08:11:47;;;;;;;17.58;16.27;;;23.30;63.80;;;;;;4994746;29;20058;-69
2021/07/06 08:14:19;;;;;;;17.58;16.27;;;23.40;61.50;;;;;;4992198;29;20110;-69
2021/07/06 08:16:54;;;;;;;17.20;15.80;;;23.50;59.20;;;;;;5010539;29;20522;-70
2021/07/06 08:19:26;;;;;;;17.30;15.88;;;23.50;61.00;;;;;;4993969;29;20797;-69
2021/07/06 08:21:59;;;;;;;17.20;15.90;;;23.60;59.90;;;;;;4990465;29;20064;-69
2021/07/06 08:24:31;;;;;;;17.27;15.98;;;23.70;62.60;;;;;;4991846;29;20086;-70
2021/07/06 08:27:03;;;;;;;17.50;16.13;;;23.80;60.90;;;;;;4990459;29;20103;-69
2021/07/06 08:29:35;;;;;;;16.90;15.52;;;23.90;65.30;;;;;;4992132;29;20133;-69
2021/07/06 08:32:07;;;;;;;16.63;15.43;;;24.00;63.90;;;;;;4992117;29;20406;-71
2021/07/06 08:34:39;;;;;;;17.13;15.68;;;24.10;61.60;;;;;;4993565;29;20992;-69
2021/07/06 08:37:11;;;;;;;17.00;15.70;;;24.20;64.00;;;;;;4994173;29;20596;-70
2021/07/06 08:39:43;;;;;;;16.90;15.50;;;24.30;64.10;;;;;;4993247;29;20886;-70
2021/07/06 08:42:15;;;;;;;17.33;15.93;;;24.30;64.90;;;;;;4997215;29;20141;-70
2021/07/06 08:44:47;;;;;;;17.75;16.00;;;24.30;62.30;;;;;;5011787;29;20042;-70
2021/07/06 08:47:20;;;;;;;18.58;16.65;;;24.40;65.30;;;;;;4991846;29;20074;-69
2021/07/06 08:49:53;;;;;;;17.13;15.82;;;24.50;65.00;;;;;;4996295;29;20070;-69
2021/07/06 08:52:25;;;;;;;21.15;16.48;;;24.60;64.60;;;;;;4991155;29;20057;-70
2021/07/06 08:54:57;;;;;;;17.17;15.68;;;24.60;65.30;;;;;;4990350;29;20133;-69
2021/07/06 08:57:29;;;;;;;30.55;17.50;;;24.60;65.90;;;;;;5005670;29;20751;-70
2021/07/06 09:00:02;;;;;;;17.77;16.33;;;24.70;64.80;;;;;;4991018;29;20061;-70
2021/07/06 09:02:35;;;;;;;18.00;16.60;;;24.70;66.80;;;;;;4991747;29;20050;-70
2021/07/06 09:05:20;;;;;;;18.15;16.63;;;24.70;65.80;;;;;;4991987;29;20065;-71
2021/07/06 09:07:52;;;;;;;18.15;16.48;;;24.70;65.30;;;;;;4991649;29;20512;-71
2021/07/06 09:10:28;;;;;;;22.65;17.02;;;24.80;66.90;;;;;;4992537;29;20137;-69
2021/07/06 09:12:59;;;;;;;27.85;17.70;;;24.90;66.70;;;;;;4994493;29;20082;-70
2021/07/06 09:15:33;;;;;;;29.17;18.10;;;25.00;66.60;;;;;;4989132;29;20095;-70
2021/07/06 09:18:16;;;;;;;21.90;17.42;;;25.00;67.00;;;;;;4991847;29;20199;-70
2021/07/06 09:21:07;;;;;;;17.90;16.50;;;25.10;67.10;;;;;;4991517;29;20054;-70
2021/07/06 09:23:44;;;;;;;18.20;16.70;;;25.20;66.70;;;;;;4992597;29;20046;-71
2021/07/06 09:26:25;;;;;;;17.27;15.98;;;25.20;67.20;;;;;;4993531;29;20077;-71
2021/07/06 09:29:00;;;;;;;17.50;16.20;;;25.20;67.80;;;;;;4992866;29;20125;-70
2021/07/06 09:31:34;;;;;;;18.00;16.50;;;25.30;68.40;;;;;;4992326;29;20042;-70
2021/07/06 09:34:12;;;;;;;18.63;16.95;;;25.40;67.10;;;;;;4992795;29;20113;-70
2021/07/06 09:36:49;;;;;;;17.58;16.27;;;25.50;67.00;;;;;;4990970;29;20062;-70
2021/07/06 09:39:26;;;;;;;18.23;16.73;;;25.50;65.80;;;;;;4990746;29;20114;-70
2021/07/06 09:42:03;;;;;;;17.80;16.40;;;25.60;66.60;;;;;;4990205;29;20057;-70
2021/07/06 09:44:36;;;;;;;18.17;16.67;;;25.60;65.80;;;;;;4994014;29;20043;-69
2021/07/06 09:47:13;;;;;;;17.85;16.45;;;25.60;67.00;;;;;;4991086;29;20088;-70
2021/07/06 09:49:57;;;;;;;17.83;16.42;;;25.70;67.00;;;;;;4994503;29;20054;-70
2021/07/06 09:52:34;;;;;;;17.85;16.45;;;25.80;66.00;;;;;;4995836;29;20524;-70
2021/07/06 09:55:07;;;;;;;18.67;17.08;;;25.80;66.30;;;;;;4990342;29;20098;-69
2021/07/06 09:57:40;;;;;;;18.23;16.60;;;25.90;66.70;;;;;;4992060;29;20846;-70
2021/07/06 10:00:15;;;;;;;18.20;16.70;;;26.00;67.40;;;;;;4989708;29;20046;-70
2021/07/06 10:02:47;;;;;;;17.25;15.95;;;26.00;65.40;;;;;;4992081;29;20074;-70
2021/07/06 10:05:22;;;;;;;17.83;16.40;;;26.00;65.70;;;;;;4989001;29;20541;-70
2021/07/06 10:07:55;;;;;;;17.98;16.60;;;26.00;66.60;;;;;;4990880;29;20426;-69
2021/07/06 10:10:28;;;;;;;18.10;16.67;;;26.10;63.80;;;;;;5003990;29;20398;-70
2021/07/06 10:13:00;;;;;;;18.00;16.58;;;26.10;64.60;;;;;;4990228;29;20129;-70
2021/07/06 10:15:32;;;;;;;18.42;16.85;;;26.20;63.60;;;;;;4988860;29;20074;-70
2021/07/06 10:18:05;;;;;;;17.65;16.27;;;26.20;62.30;;;;;;4990596;29;20056;-69
2021/07/06 10:20:37;;;;;;;17.75;16.45;;;26.30;61.40;;;;;;4990468;29;20130;-70
2021/07/06 10:23:09;;;;;;;18.45;16.75;;;26.30;59.30;;;;;;4991109;29;20118;-69
2021/07/06 10:25:42;;;;;;;18.02;16.52;;;26.40;57.80;;;;;;4990439;29;20046;-69
2021/07/06 10:28:16;;;;;;;17.70;16.40;;;26.30;51.00;;;;;;4991212;29;20127;-69
2021/07/06 10:30:49;;;;;;;17.88;16.48;;;26.20;53.70;;;;;;4992578;29;20069;-69
2021/07/06 10:33:31;;;;;;;17.45;16.15;;;26.10;55.80;;;;;;4991206;29;20114;-69
2021/07/06 10:36:04;;;;;;;17.55;16.17;;;26.00;52.80;;;;;;4990592;29;20106;-70
2021/07/06 10:38:41;;;;;;;17.65;16.15;;;26.00;54.80;;;;;;4989903;29;20125;-69
2021/07/06 10:41:41;;;;;;;17.77;16.38;;;26.10;55.50;;;;;;4990183;29;20073;-69
2021/07/06 10:44:16;;;;;;;17.73;16.33;;;26.00;50.70;;;;;;4988816;29;20124;-70
2021/07/06 10:46:49;;;;;;;17.55;16.17;;;26.00;51.70;;;;;;4987313;29;20850;-69
2021/07/06 10:49:33;;;;;;;17.55;16.15;;;26.00;49.20;;;;;;5005467;29;20061;-70
2021/07/06 10:52:06;;;;;;;17.20;15.82;;;26.10;52.40;;;;;;4988282;29;20050;-69
2021/07/06 10:54:38;;;;;;;17.50;16.20;;;26.20;51.00;;;;;;4989124;29;20050;-70
2021/07/06 10:57:10;;;;;;;17.30;16.00;;;26.30;50.00;;;;;;5004625;29;20058;-68
2021/07/06 10:59:42;;;;;;;17.65;16.23;;;26.40;49.90;;;;;;4989051;29;20103;-69
2021/07/06 11:02:24;;;;;;;17.45;16.15;;;26.50;47.40;;;;;;4992544;29;20057;-69
2021/07/06 11:05:02;;;;;;;17.48;15.80;;;26.50;50.00;;;;;;4990284;29;20130;-69
2021/07/06 11:07:40;;;;;;;17.80;16.40;;;26.60;49.90;;;;;;4997750;29;20067;-68
2021/07/06 11:10:12;;;;;;;18.00;16.27;;;26.60;49.70;;;;;;4992611;29;20627;-68
2021/07/06 11:12:48;;;;;;;17.50;16.15;;;26.70;51.80;;;;;;4992742;29;20074;-70
2021/07/06 11:15:30;;;;;;;17.80;16.50;;;26.70;49.60;;;;;;4993106;29;20054;-70
2021/07/06 11:18:04;;;;;;;17.98;16.55;;;26.70;45.20;;;;;;4994824;29;21077;-69
2021/07/06 11:20:47;;;;;;;17.55;16.25;;;26.80;50.20;;;;;;4994633;29;20102;-69
2021/07/06 11:23:34;;;;;;;17.17;15.90;;;27.00;52.10;;;;;;4992452;29;20054;-70
2021/07/06 11:26:07;;;;;;;17.80;16.50;;;27.10;50.00;;;;;;4992465;29;20049;-70
2021/07/06 11:29:05;;;;;;;17.63;16.33;;;27.10;46.40;;;;;;4992918;29;20117;-70
2021/07/06 11:31:37;;;;;;;17.65;16.35;;;27.20;47.70;;;;;;4990753;29;20053;-69
2021/07/06 11:34:19;;;;;;;17.70;16.40;;;27.30;47.10;;;;;;4996443;29;20041;-70
2021/07/06 11:36:51;;;;;;;17.48;16.17;;;27.20;45.60;;;;;;5007721;29;20102;-70
2021/07/06 11:39:24;;;;;;;17.70;16.40;;;27.20;45.80;;;;;;4992975;29;20083;-68
2021/07/06 11:41:56;;;;;;;17.67;16.25;;;27.20;45.30;;;;;;4993369;29;20074;-69
2021/07/06 11:44:32;;;;;;;17.50;16.20;;;27.20;47.70;;;;;;4997669;29;20046;-69
2021/07/06 11:47:12;;;;;;;18.23;16.92;;;27.30;46.70;;;;;;4991788;29;20650;-70
2021/07/06 11:49:48;;;;;;;18.02;16.73;;;27.50;50.50;;;;;;4995011;29;20130;-70
2021/07/06 11:52:20;;;;;;;18.45;17.08;;;27.60;48.60;;;;;;5001481;29;20460;-70
2021/07/06 11:54:53;;;;;;;18.02;16.73;;;27.70;48.20;;;;;;4992559;29;20070;-70
2021/07/06 11:57:25;;;;;;;18.20;16.90;;;27.70;47.20;;;;;;4994552;29;20595;-70
2021/07/06 12:00:09;;;;;;;18.52;17.13;;;27.50;42.10;;;;;;4990482;29;20049;-70
2021/07/06 12:02:41;;;;;;;18.50;17.17;;;27.50;50.60;;;;;;4992865;29;20130;-69
2021/07/06 12:05:19;;;;;;;18.88;17.48;;;27.50;44.40;;;;;;4992582;29;20038;-71
2021/07/06 12:07:50;;;;;;;19.83;18.23;;;27.70;50.20;;;;;;4990672;29;20130;-70
2021/07/06 12:10:23;;;;;;;19.75;18.25;;;27.80;50.10;;;;;;4994443;29;20137;-70
2021/07/06 12:13:04;;;;;;;19.50;18.10;;;27.90;50.00;;;;;;4991568;29;20162;-70
2021/07/06 12:15:37;;;;;;;19.17;17.67;;;27.90;49.00;;;;;;4990854;29;20042;-69
2021/07/06 12:18:10;;;;;;;19.55;18.05;;;28.00;50.80;;;;;;4993484;29;20655;-70
2021/07/06 12:20:51;;;;;;;19.17;17.73;;;28.00;49.30;;;;;;4993631;29;20154;-70
2021/07/06 12:23:23;;;;;;;18.90;17.50;;;28.00;52.40;;;;;;4994069;29;20137;-70
2021/07/06 12:25:56;;;;;;;18.70;17.33;;;28.00;50.40;;;;;;4991419;29;20070;-70
2021/07/06 12:28:28;;;;;;;19.08;17.67;;;28.00;49.60;;;;;;4992734;29;20117;-70
2021/07/06 12:31:23;;;;;;;19.20;17.80;;;28.00;50.10;;;;;;4990986;29;20102;-70
2021/07/06 12:34:15;;;;;;;19.05;17.65;;;28.00;46.80;;;;;;4993544;29;20045;-70
2021/07/06 12:36:56;;;;;;;19.35;17.95;;;28.00;49.10;;;;;;4994075;29;20054;-71
2021/07/06 12:39:32;;;;;;;19.30;17.80;;;28.00;50.00;;;;;;5003946;29;20107;-69
2021/07/06 12:42:12;;;;;;;19.20;17.70;;;28.10;47.10;;;;;;4993922;29;20054;-68
2021/07/06 12:44:49;;;;;;;19.27;17.88;;;28.10;47.90;;;;;;4991416;29;20110;-70
2021/07/06 12:47:31;;;;;;;19.02;17.55;;;28.20;48.90;;;;;;5001905;29;20078;-70
2021/07/06 12:50:19;;;;;;;19.02;17.63;;;28.20;47.40;;;;;;4991305;29;20553;-69
2021/07/06 12:52:53;;;;;;;19.35;17.80;;;28.10;48.10;;;;;;5005589;29;20054;-69
2021/07/06 12:55:27;;;;;;;19.20;17.75;;;28.00;48.90;;;;;;5009232;29;20073;-71
2021/07/06 12:58:08;;;;;;;19.92;18.33;;;28.00;49.10;;;;;;4991183;29;20825;-69
2021/07/06 13:00:42;;;;;;;19.88;18.38;;;28.30;48.50;;;;;;4991635;29;20138;-70